Time;durP1;ratioP1;P1;durP2;ratioP2;P2;SDS_P1;SDS_P2;PMS_P1;PMS_P2;Temp;Humidity;BMP_temperature;BMP_pressure;BME280_temperature;BME280_humidity;BME280_pressure;Samples;Min_cycle;Max_cycle;Signal;HPM_P1;HPM_P2
2021/07/11 00:01:57;;;;;;;4.22;0.78;;;17.40;99.90;;;;;;1905551;74;21085;-73
2021/07/11 00:04:23;;;;;;;0.90;0.90;;;17.50;99.90;;;;;;1901619;74;21419;-73
2021/07/11 00:06:49;;;;;;;1.30;0.80;;;17.50;99.90;;;;;;1898887;75;21525;-73
2021/07/11 00:09:15;;;;;;;2.40;1.02;;;17.40;99.90;;;;;;1899130;75;21556;-73
2021/07/11 00:11:41;;;;;;;0.82;0.80;;;17.40;99.90;;;;;;1896646;75;21583;-73
2021/07/11 00:14:07;;;;;;;1.47;1.02;;;17.40;99.90;;;;;;1899124;75;21046;-74
2021/07/11 00:16:33;;;;;;;1.02;0.85;;;17.40;99.90;;;;;;1898965;75;21154;-74
2021/07/11 00:19:00;;;;;;;1.15;0.95;;;17.30;99.90;;;;;;1899378;75;21085;-74
2021/07/11 00:21:26;;;;;;;1.77;1.12;;;17.30;99.90;;;;;;1900498;75;21212;-72
2021/07/11 00:23:52;;;;;;;2.83;1.40;;;17.40;99.90;;;;;;1900065;75;21054;-73
2021/07/11 00:26:18;;;;;;;0.70;0.70;;;17.40;99.90;;;;;;1902761;75;21146;-72
2021/07/11 00:28:44;;;;;;;1.42;1.17;;;17.30;99.90;;;;;;1902905;75;21130;-72
2021/07/11 00:31:10;;;;;;;1.15;0.82;;;17.30;99.90;;;;;;1899606;75;21111;-75
2021/07/11 00:33:36;;;;;;;4.40;1.20;;;17.20;99.90;;;;;;1899214;75;21133;-74
2021/07/11 00:36:02;;;;;;;0.75;0.75;;;17.30;99.90;;;;;;1899684;75;21084;-73
2021/07/11 00:38:29;;;;;;;1.87;1.00;;;17.30;99.90;;;;;;1899871;75;21166;-75
2021/07/11 00:40:55;;;;;;;0.78;0.78;;;17.30;99.90;;;;;;1902594;74;21013;-74
2021/07/11 00:43:21;;;;;;;1.65;0.88;;;17.20;99.90;;;;;;1902192;74;21089;-74
2021/07/11 00:45:47;;;;;;;1.17;0.90;;;17.10;99.90;;;;;;1901302;74;21048;-74
2021/07/11 00:48:13;;;;;;;1.75;1.00;;;17.00;99.90;;;;;;1901224;75;21063;-74
2021/07/11 00:50:39;;;;;;;1.12;0.90;;;17.10;99.90;;;;;;1900350;75;21084;-75
2021/07/11 00:53:08;;;;;;;0.88;0.80;;;17.00;99.90;;;;;;1899697;75;21139;-74
2021/07/11 00:55:33;;;;;;;4.62;0.93;;;16.90;99.90;;;;;;1899311;75;21469;-72
2021/07/11 00:57:59;;;;;;;1.07;1.07;;;16.90;99.90;;;;;;1898890;75;21489;-74
2021/07/11 01:00:25;;;;;;;1.15;0.98;;;16.90;99.90;;;;;;1898941;75;21543;-74
2021/07/11 01:02:52;;;;;;;0.98;0.88;;;16.80;99.90;;;;;;1899094;75;21569;-74
2021/07/11 01:05:18;;;;;;;1.05;0.98;;;16.90;99.90;;;;;;1899116;75;21497;-72
2021/07/11 01:07:44;;;;;;;0.82;0.82;;;16.70;99.90;;;;;;1898989;75;21588;-73
2021/07/11 01:10:10;;;;;;;1.35;1.05;;;16.80;99.90;;;;;;1898937;75;21158;-74
2021/07/11 01:12:36;;;;;;;1.87;1.10;;;16.80;99.90;;;;;;1899067;75;21081;-74
2021/07/11 01:15:02;;;;;;;1.15;0.90;;;16.70;99.90;;;;;;1898974;75;21103;-74
2021/07/11 01:17:28;;;;;;;0.93;0.78;;;16.80;99.90;;;;;;1899180;75;21139;-75
2021/07/11 01:19:54;;;;;;;1.07;0.90;;;16.80;99.90;;;;;;1898997;75;21080;-74
2021/07/11 01:22:20;;;;;;;1.20;0.72;;;16.90;99.90;;;;;;1898983;75;21076;-74
2021/07/11 01:24:47;;;;;;;1.60;0.85;;;16.90;99.90;;;;;;1898996;75;21203;-74
2021/07/11 01:27:13;;;;;;;3.17;1.37;;;16.90;99.90;;;;;;1898959;75;21155;-74
2021/07/11 01:29:40;;;;;;;2.02;1.07;;;16.90;99.90;;;;;;1898942;75;21081;-74
2021/07/11 01:32:06;;;;;;;1.55;0.93;;;16.90;99.90;;;;;;1898964;75;21587;-72
2021/07/11 01:34:33;;;;;;;1.77;1.30;;;16.90;99.90;;;;;;1898933;75;21505;-73
2021/07/11 01:36:59;;;;;;;1.05;0.82;;;16.80;99.90;;;;;;1898926;75;21560;-73
2021/07/11 01:39:25;;;;;;;1.95;0.80;;;16.80;99.90;;;;;;1898931;75;21092;-73
2021/07/11 01:41:51;;;;;;;1.35;1.25;;;16.80;99.90;;;;;;1898952;75;21076;-73
2021/07/11 01:44:17;;;;;;;1.00;0.90;;;16.80;99.90;;;;;;1899030;75;21260;-73
2021/07/11 01:46:43;;;;;;;5.70;1.22;;;16.80;99.90;;;;;;1899076;75;21081;-72
2021/07/11 01:49:09;;;;;;;0.88;0.88;;;16.80;99.90;;;;;;1899196;75;21079;-73
2021/07/11 01:51:35;;;;;;;7.58;1.07;;;16.80;99.90;;;;;;1899213;75;21163;-73
2021/07/11 01:54:02;;;;;;;1.70;1.00;;;16.80;99.90;;;;;;1899200;75;21080;-74
2021/07/11 01:56:28;;;;;;;2.67;1.30;;;16.80;99.90;;;;;;1899052;75;21082;-73
2021/07/11 01:58:54;;;;;;;1.10;0.90;;;16.70;99.90;;;;;;1899030;75;21154;-74
2021/07/11 02:01:20;;;;;;;2.77;1.20;;;16.70;99.90;;;;;;1899211;75;21154;-73
2021/07/11 02:03:46;;;;;;;2.72;1.10;;;16.70;99.90;;;;;;1898540;75;21154;-73
2021/07/11 02:06:12;;;;;;;1.10;0.95;;;16.70;99.90;;;;;;1899257;75;21057;-74
2021/07/11 02:08:38;;;;;;;1.52;1.00;;;16.70;99.90;;;;;;1913074;74;21092;-74
2021/07/11 02:11:04;;;;;;;1.25;1.12;;;16.60;99.90;;;;;;1899390;75;21077;-74
2021/07/11 02:13:31;;;;;;;2.42;1.20;;;16.70;99.90;;;;;;1908316;74;21073;-74
2021/07/11 02:15:57;;;;;;;1.25;0.90;;;16.70;99.90;;;;;;1899379;75;21108;-74
2021/07/11 02:18:23;;;;;;;3.37;1.40;;;16.70;99.90;;;;;;1901085;74;21060;-74
2021/07/11 02:20:49;;;;;;;1.45;1.35;;;16.70;99.90;;;;;;1902298;74;21089;-74
2021/07/11 02:23:15;;;;;;;1.57;1.40;;;16.70;99.90;;;;;;1902312;74;21029;-75
2021/07/11 02:25:41;;;;;;;2.98;1.65;;;16.70;99.90;;;;;;1902132;74;21095;-75
2021/07/11 02:28:07;;;;;;;10.03;1.15;;;16.70;99.90;;;;;;1902072;74;21049;-73
2021/07/11 02:30:41;;;;;;;0.80;0.80;;;16.70;99.90;;;;;;1902415;74;21025;-75
2021/07/11 02:33:11;;;;;;;1.75;1.22;;;16.70;99.90;;;;;;1902380;74;21117;-75
2021/07/11 02:35:35;;;;;;;1.20;1.10;;;16.60;99.90;;;;;;1901761;74;21194;-75
2021/07/11 02:38:01;;;;;;;1.27;1.17;;;16.70;99.90;;;;;;1902408;74;21037;-75
2021/07/11 02:40:27;;;;;;;3.33;1.20;;;16.70;99.90;;;;;;1902415;74;21170;-74
2021/07/11 02:42:53;;;;;;;1.22;1.12;;;16.70;99.90;;;;;;1902396;74;21029;-74
2021/07/11 02:45:19;;;;;;;1.45;1.15;;;16.70;99.90;;;;;;1902555;74;21017;-74
2021/07/11 02:47:45;;;;;;;4.17;1.17;;;16.70;99.90;;;;;;1902330;74;21025;-74
2021/07/11 02:50:12;;;;;;;3.77;1.25;;;16.70;99.90;;;;;;1902695;75;21041;-73
2021/07/11 02:52:38;;;;;;;1.50;1.35;;;16.60;99.90;;;;;;1902564;75;21150;-73
2021/07/11 02:55:04;;;;;;;2.15;1.20;;;16.60;99.90;;;;;;1901362;75;21076;-73
2021/07/11 02:57:30;;;;;;;1.47;1.10;;;16.60;99.90;;;;;;1899482;75;21002;-73
2021/07/11 02:59:56;;;;;;;1.10;1.10;;;16.60;99.90;;;;;;1899303;75;21454;-73
2021/07/11 03:02:22;;;;;;;4.60;1.20;;;16.60;99.90;;;;;;1900836;75;21107;-72
2021/07/11 03:04:50;;;;;;;2.05;1.20;;;16.60;99.90;;;;;;1901689;75;21216;-73
2021/07/11 03:07:16;;;;;;;2.05;1.35;;;16.60;99.90;;;;;;1900643;75;21654;-73
2021/07/11 03:09:42;;;;;;;2.15;1.10;;;16.70;99.90;;;;;;1899016;75;21525;-74
2021/07/11 03:12:09;;;;;;;1.12;1.02;;;16.70;99.90;;;;;;1899046;75;21501;-74
2021/07/11 03:14:35;;;;;;;1.27;1.15;;;16.70;99.90;;;;;;1899051;75;21073;-74
2021/07/11 03:17:01;;;;;;;1.20;1.10;;;16.60;99.90;;;;;;1899019;75;21041;-74
2021/07/11 03:19:27;;;;;;;0.82;0.82;;;16.60;99.90;;;;;;1899195;75;21116;-74
2021/07/11 03:21:53;;;;;;;0.93;0.80;;;16.50;99.90;;;;;;1899179;75;21081;-73
2021/07/11 03:24:19;;;;;;;1.42;1.00;;;16.50;99.90;;;;;;1899079;75;21186;-74
2021/07/11 03:26:45;;;;;;;1.10;0.98;;;16.60;99.90;;;;;;1899112;75;21081;-73
2021/07/11 03:29:11;;;;;;;2.37;0.82;;;16.60;99.90;;;;;;1899136;75;21077;-74
2021/07/11 03:31:38;;;;;;;1.47;1.25;;;16.60;99.90;;;;;;1899089;75;21159;-74
2021/07/11 03:34:04;;;;;;;1.92;1.05;;;16.60;99.90;;;;;;1899068;75;21070;-74
2021/07/11 03:36:30;;;;;;;2.50;1.10;;;16.50;99.90;;;;;;1899265;75;21069;-74
2021/07/11 03:38:56;;;;;;;1.77;0.90;;;16.60;99.90;;;;;;1900057;75;21041;-74
2021/07/11 03:41:22;;;;;;;2.60;0.80;;;16.60;99.90;;;;;;1899191;75;21070;-74
2021/07/11 03:43:48;;;;;;;1.52;1.30;;;16.60;99.90;;;;;;1898940;75;21500;-74
2021/07/11 03:46:14;;;;;;;1.95;1.00;;;16.50;99.90;;;;;;1899078;75;21081;-74
2021/07/11 03:48:41;;;;;;;5.87;1.00;;;16.50;99.90;;;;;;1898927;75;21077;-74
2021/07/11 03:51:07;;;;;;;5.90;1.10;;;16.50;99.90;;;;;;1899120;75;21108;-73
2021/07/11 03:53:33;;;;;;;1.45;0.90;;;16.50;99.90;;;;;;1898908;75;21123;-73
2021/07/11 03:55:59;;;;;;;2.05;1.00;;;16.50;99.90;;;;;;1899177;75;21147;-74
2021/07/11 03:58:34;;;;;;;1.20;1.02;;;16.50;99.90;;;;;;1898937;75;21155;-74
2021/07/11 04:01:00;;;;;;;1.05;1.05;;;16.50;99.90;;;;;;1908044;74;21169;-73
2021/07/11 04:03:26;;;;;;;1.47;1.22;;;16.50;99.90;;;;;;1899051;75;21143;-73
2021/07/11 04:05:52;;;;;;;9.38;1.07;;;16.50;99.90;;;;;;1903334;74;21150;-73
2021/07/11 04:08:19;;;;;;;1.87;0.93;;;16.50;99.90;;;;;;1898501;75;21078;-73
2021/07/11 04:10:45;;;;;;;3.37;1.00;;;16.50;99.90;;;;;;1899055;75;21092;-73
2021/07/11 04:13:11;;;;;;;1.00;0.85;;;16.50;99.90;;;;;;1903277;74;21093;-73
2021/07/11 04:15:37;;;;;;;1.57;1.10;;;16.60;99.90;;;;;;1899154;75;21112;-73
2021/07/11 04:18:03;;;;;;;4.53;1.20;;;16.70;99.90;;;;;;1898902;75;21046;-73
2021/07/11 04:20:29;;;;;;;2.55;1.12;;;16.70;99.90;;;;;;1899162;75;21163;-73
2021/07/11 04:22:55;;;;;;;1.12;0.82;;;16.70;99.90;;;;;;1898952;75;21143;-72
2021/07/11 04:28:07;;;;;;;1.42;0.98;;;16.60;99.90;;;;;;1925824;74;21099;-73
2021/07/11 04:30:33;;;;;;;1.65;1.10;;;16.60;99.90;;;;;;1925999;74;21149;-73
2021/07/11 04:32:59;;;;;;;4.72;1.07;;;16.70;99.90;;;;;;1926026;74;21068;-73
2021/07/11 04:35:25;;;;;;;1.22;0.80;;;16.80;99.90;;;;;;1926005;74;21075;-74
2021/07/11 04:37:51;;;;;;;1.02;1.02;;;16.90;99.90;;;;;;1925998;74;21068;-73
2021/07/11 04:40:18;;;;;;;1.27;1.10;;;17.00;99.90;;;;;;1926046;74;21064;-73
2021/07/11 04:42:44;;;;;;;3.62;1.20;;;17.00;99.90;;;;;;1925977;74;21075;-73
2021/07/11 04:45:11;;;;;;;1.37;1.17;;;17.00;99.90;;;;;;1925917;74;21075;-73
2021/07/11 04:47:37;;;;;;;2.00;0.90;;;17.00;99.90;;;;;;1926036;74;21088;-73
2021/07/11 04:50:03;;;;;;;0.90;0.90;;;17.00;99.90;;;;;;1926071;74;21067;-74
2021/07/11 04:52:31;;;;;;;5.60;1.10;;;17.00;99.90;;;;;;1925930;74;21068;-72
2021/07/11 04:54:57;;;;;;;1.12;0.95;;;17.00;99.90;;;;;;1928890;71;21317;-72
2021/07/11 04:57:23;;;;;;;1.00;0.90;;;17.00;99.90;;;;;;1929876;74;21049;-69
2021/07/11 04:59:49;;;;;;;0.75;0.75;;;17.20;99.90;;;;;;1926735;74;21039;-72
2021/07/11 05:02:15;;;;;;;2.40;1.20;;;17.20;99.90;;;;;;1925906;74;21072;-73
2021/07/11 05:04:42;;;;;;;1.25;0.90;;;17.30;99.90;;;;;;1925894;74;21067;-72
2021/07/11 05:07:08;;;;;;;0.98;0.82;;;17.30;99.90;;;;;;1925908;74;21040;-72
2021/07/11 05:09:34;;;;;;;1.80;1.12;;;17.20;99.90;;;;;;1925848;74;21080;-72
2021/07/11 05:12:00;;;;;;;0.80;0.80;;;17.20;99.90;;;;;;1925889;74;21084;-73
2021/07/11 05:14:26;;;;;;;9.28;1.25;;;17.10;99.90;;;;;;1925855;74;21133;-72
2021/07/11 05:16:52;;;;;;;1.15;0.93;;;17.00;99.90;;;;;;1925782;74;21005;-73
2021/07/11 05:19:18;;;;;;;1.17;1.10;;;17.00;99.90;;;;;;1925942;74;21137;-72
2021/07/11 05:21:44;;;;;;;3.15;1.20;;;17.00;99.90;;;;;;1926075;74;21125;-74
2021/07/11 05:24:10;;;;;;;1.27;1.10;;;16.90;99.90;;;;;;1926006;74;21076;-73
2021/07/11 05:26:37;;;;;;;1.15;1.07;;;16.90;99.90;;;;;;1926025;74;21101;-71
2021/07/11 05:29:03;;;;;;;1.35;0.95;;;17.10;99.90;;;;;;1925948;74;21068;-71
2021/07/11 05:31:29;;;;;;;2.10;1.42;;;17.10;99.90;;;;;;1925966;74;21060;-71
2021/07/11 05:33:55;;;;;;;1.17;1.00;;;17.20;99.90;;;;;;1925973;74;21064;-72
2021/07/11 05:36:22;;;;;;;2.80;1.30;;;17.30;99.90;;;;;;1925976;74;21068;-73
2021/07/11 05:38:48;;;;;;;1.30;1.10;;;17.40;99.90;;;;;;1925993;74;21071;-74
2021/07/11 05:41:14;;;;;;;1.62;0.95;;;17.30;99.90;;;;;;1925957;74;21145;-74
2021/07/11 05:43:40;;;;;;;1.22;1.12;;;17.30;99.90;;;;;;1925911;74;21496;-73
2021/07/11 05:46:06;;;;;;;1.90;0.98;;;17.30;99.90;;;;;;1925973;74;21624;-74
2021/07/11 05:48:33;;;;;;;2.87;1.37;;;17.40;99.90;;;;;;1925939;74;21061;-74
2021/07/11 05:50:59;;;;;;;1.10;1.00;;;17.40;99.90;;;;;;1925955;74;21036;-74
2021/07/11 05:53:25;;;;;;;4.95;1.30;;;17.60;99.90;;;;;;1925932;74;21129;-74
2021/07/11 05:55:53;;;;;;;1.47;1.10;;;17.60;99.90;;;;;;1925980;74;21145;-74
2021/07/11 05:58:19;;;;;;;0.98;0.98;;;17.60;99.90;;;;;;1925914;74;21488;-74
2021/07/11 06:00:45;;;;;;;3.25;1.32;;;17.80;99.90;;;;;;1926068;74;21406;-73
2021/07/11 06:03:11;;;;;;;2.42;1.30;;;17.90;99.90;;;;;;1926043;74;21491;-75
2021/07/11 06:05:42;;;;;;;1.15;1.05;;;17.80;99.90;;;;;;1926027;74;21482;-75
2021/07/11 06:08:08;;;;;;;1.22;1.12;;;18.10;99.90;;;;;;1925952;74;21052;-74
2021/07/11 06:10:34;;;;;;;1.00;0.95;;;18.00;99.90;;;;;;1926137;74;21137;-74
2021/07/11 06:13:00;;;;;;;1.25;1.05;;;18.10;99.90;;;;;;1926138;74;21203;-74
2021/07/11 06:15:26;;;;;;;2.50;1.00;;;18.30;99.90;;;;;;1926069;73;21163;-74
2021/07/11 06:17:52;;;;;;;0.57;0.57;;;19.00;99.90;;;;;;1926134;74;21140;-75
2021/07/11 06:20:19;;;;;;;4.03;0.90;;;19.80;99.90;;;;;;1925860;74;21079;-75
2021/07/11 06:22:45;;;;;;;5.60;1.02;;;20.30;99.90;;;;;;1926162;74;21569;-74
2021/07/11 06:25:11;;;;;;;1.70;0.90;;;20.60;99.90;;;;;;1925947;74;21512;-75
2021/07/11 06:27:37;;;;;;;3.27;1.00;;;21.00;99.90;;;;;;1925923;74;21516;-75
2021/07/11 06:30:03;;;;;;;1.70;0.88;;;22.00;99.90;;;;;;1925748;73;21515;-80
2021/07/11 06:32:29;;;;;;;0.72;0.72;;;23.30;99.90;;;;;;1925892;73;21091;-79
2021/07/11 06:34:55;;;;;;;0.70;0.70;;;24.60;99.90;;;;;;1925965;74;21071;-78
2021/07/11 06:37:21;;;;;;;1.95;0.98;;;25.10;99.90;;;;;;1925896;74;21049;-78
2021/07/11 06:39:47;;;;;;;1.57;0.80;;;25.00;99.90;;;;;;1925909;73;21075;-78
2021/07/11 06:42:14;;;;;;;1.10;0.72;;;26.30;99.90;;;;;;1925407;73;21236;-78
2021/07/11 06:44:40;;;;;;;1.67;0.80;;;26.90;99.90;;;;;;1925744;73;21145;-79
2021/07/11 06:47:08;;;;;;;1.42;0.80;;;26.90;99.90;;;;;;1925920;74;21037;-78
2021/07/11 06:49:34;;;;;;;0.53;0.53;;;27.10;99.90;;;;;;1925472;73;21597;-79
2021/07/11 06:52:00;;;;;;;1.87;0.95;;;26.10;99.90;;;;;;1925830;74;21083;-78
2021/07/11 06:54:26;;;;;;;3.08;0.93;;;25.20;99.90;;;;;;1925928;74;21153;-82
2021/07/11 06:56:52;;;;;;;1.75;0.80;;;24.50;99.90;;;;;;1925938;74;21067;-78
2021/07/11 06:59:18;;;;;;;0.78;0.78;;;24.60;99.90;;;;;;1926334;74;21133;-78
2021/07/11 07:01:45;;;;;;;1.92;0.90;;;24.00;99.90;;;;;;1926113;74;21126;-78
2021/07/11 07:04:11;;;;;;;2.70;1.12;;;23.00;99.90;;;;;;1926004;74;21146;-79
2021/07/11 07:06:37;;;;;;;1.37;0.95;;;22.70;99.90;;;;;;1925945;74;21076;-78
2021/07/11 07:09:03;;;;;;;3.22;0.80;;;22.90;99.90;;;;;;1926017;74;21063;-79
2021/07/11 07:11:29;;;;;;;0.80;0.80;;;24.20;99.90;;;;;;1926048;74;21075;-79
2021/07/11 07:13:55;;;;;;;4.53;0.75;;;25.40;99.90;;;;;;1926050;74;21150;-79
2021/07/11 07:16:21;;;;;;;0.72;0.60;;;25.90;99.90;;;;;;1926070;74;21077;-79
2021/07/11 07:18:47;;;;;;;6.20;0.82;;;26.10;99.90;;;;;;1925942;73;21115;-79
2021/07/11 07:21:14;;;;;;;0.82;0.80;;;26.30;99.90;;;;;;1925806;74;21068;-75
2021/07/11 07:23:40;;;;;;;3.40;0.80;;;25.30;99.90;;;;;;1926008;73;21072;-75
2021/07/11 07:26:06;;;;;;;0.62;0.62;;;23.70;99.90;;;;;;1925838;74;21041;-75
2021/07/11 07:28:32;;;;;;;3.70;0.80;;;22.80;99.90;;;;;;1925929;74;21076;-75
2021/07/11 07:30:58;;;;;;;0.98;0.80;;;22.20;99.90;;;;;;1925824;73;21127;-75
2021/07/11 07:33:24;;;;;;;0.80;0.80;;;21.90;99.90;;;;;;1926009;74;21084;-74
2021/07/11 07:35:50;;;;;;;1.95;0.98;;;21.60;99.90;;;;;;1925836;74;21041;-75
2021/07/11 07:38:16;;;;;;;0.98;0.80;;;21.40;99.90;;;;;;1925951;74;21158;-75
2021/07/11 07:40:42;;;;;;;0.93;0.88;;;22.20;99.90;;;;;;1925859;74;21534;-75
2021/07/11 07:43:13;;;;;;;6.12;1.10;;;22.60;99.90;;;;;;1926037;74;21568;-75
2021/07/11 07:45:36;;;;;;;1.50;0.80;;;23.80;99.90;;;;;;1925350;74;21093;-74
2021/07/11 07:48:03;;;;;;;1.70;0.80;;;23.60;99.90;;;;;;1926043;74;21079;-75
2021/07/11 07:50:29;;;;;;;1.02;0.80;;;22.80;99.90;;;;;;1925926;74;21605;-74
2021/07/11 07:52:55;;;;;;;1.00;0.80;;;22.50;99.90;;;;;;1925989;74;21488;-74
2021/07/11 07:55:21;;;;;;;7.03;0.95;;;22.80;99.90;;;;;;1925937;74;21504;-74
2021/07/11 07:57:47;;;;;;;0.70;0.70;;;22.50;99.90;;;;;;1925928;74;21072;-74
2021/07/11 08:00:14;;;;;;;9.38;1.10;;;22.80;99.90;;;;;;1925946;74;21075;-76
2021/07/11 08:02:40;;;;;;;0.62;0.62;;;23.10;99.90;;;;;;1925936;74;21584;-74
2021/07/11 08:05:07;;;;;;;9.85;1.22;;;23.00;99.90;;;;;;1926172;74;21472;-71
2021/07/11 08:07:33;;;;;;;6.50;1.05;;;22.60;99.90;;;;;;1925987;74;21501;-70
2021/07/11 08:09:59;;;;;;;1.25;1.02;;;22.20;99.90;;;;;;1926028;74;21441;-71
2021/07/11 08:12:25;;;;;;;2.45;1.00;;;21.80;99.90;;;;;;1925898;73;21576;-74
2021/07/11 08:14:52;;;;;;;0.95;0.80;;;21.60;99.90;;;;;;1925874;74;21068;-75
2021/07/11 08:17:18;;;;;;;1.17;0.98;;;21.50;99.90;;;;;;1925999;74;21048;-72
2021/07/11 08:19:44;;;;;;;0.98;0.85;;;21.30;99.90;;;;;;1925897;74;21072;-75
2021/07/11 08:22:11;;;;;;;53.80;4.08;;;21.20;99.90;;;;;;1925991;74;21077;-74
2021/07/11 08:24:37;;;;;;;0.80;0.78;;;21.00;99.90;;;;;;1925868;74;21080;-75
2021/07/11 08:27:04;;;;;;;0.80;0.78;;;21.10;99.90;;;;;;1925839;74;21505;-75
2021/07/11 08:29:31;;;;;;;1.85;1.07;;;20.60;99.90;;;;;;1925987;74;21083;-75
2021/07/11 08:31:57;;;;;;;1.02;0.70;;;20.60;99.90;;;;;;1926148;74;21072;-76
2021/07/11 08:34:23;;;;;;;1.45;0.90;;;20.70;99.90;;;;;;1926253;73;21073;-77
2021/07/11 08:36:52;;;;;;;2.45;1.05;;;20.70;99.90;;;;;;1926224;74;21138;-76
2021/07/11 08:39:19;;;;;;;2.08;0.85;;;20.50;99.90;;;;;;1925778;74;21075;-75
2021/07/11 08:41:46;;;;;;;1.95;0.93;;;20.70;99.90;;;;;;1925803;73;21103;-76
2021/07/11 08:44:12;;;;;;;1.20;0.80;;;20.80;99.90;;;;;;1925957;74;21052;-76
2021/07/11 08:46:38;;;;;;;1.87;1.20;;;21.10;99.90;;;;;;1926115;74;21184;-76
2021/07/11 08:49:04;;;;;;;2.40;0.88;;;21.50;99.90;;;;;;1926033;74;21169;-78
2021/07/11 08:51:30;;;;;;;1.77;1.00;;;21.60;99.90;;;;;;1926101;74;21092;-77
2021/07/11 08:53:57;;;;;;;0.82;0.80;;;21.80;99.90;;;;;;1925893;74;21146;-74
2021/07/11 08:56:25;;;;;;;1.10;0.60;;;22.20;99.90;;;;;;1925857;74;21157;-73
2021/07/11 08:58:51;;;;;;;1.98;0.90;;;22.70;99.90;;;;;;1924940;73;21557;-75
2021/07/11 09:01:18;;;;;;;3.83;1.00;;;22.80;99.90;;;;;;1926079;74;21559;-74
2021/07/11 09:03:44;;;;;;;0.82;0.82;;;22.60;99.90;;;;;;1925886;73;21091;-74
2021/07/11 09:06:10;;;;;;;1.20;0.90;;;22.30;99.90;;;;;;1926021;73;21118;-74
2021/07/11 09:08:36;;;;;;;0.75;0.75;;;21.90;99.90;;;;;;1926100;74;21072;-73
2021/07/11 09:11:03;;;;;;;0.72;0.72;;;21.70;99.90;;;;;;1924873;73;21071;-75
2021/07/11 09:13:30;;;;;;;1.22;0.80;;;21.40;99.90;;;;;;1931249;74;21160;-74
2021/07/11 09:15:56;;;;;;;1.35;0.90;;;21.00;99.90;;;;;;1930839;74;21124;-75
2021/07/11 09:18:23;;;;;;;1.07;0.78;;;20.90;99.90;;;;;;1931246;74;21091;-74
2021/07/11 09:20:49;;;;;;;4.80;1.00;;;20.90;99.90;;;;;;1931269;74;21598;-74
2021/07/11 09:23:15;;;;;;;2.15;1.12;;;21.00;99.90;;;;;;1933337;74;21110;-72
2021/07/11 09:25:41;;;;;;;1.80;1.17;;;21.10;99.90;;;;;;1934837;74;21127;-72
2021/07/11 09:28:07;;;;;;;3.15;0.85;;;21.20;99.90;;;;;;1933113;74;21134;-74
2021/07/11 09:30:33;;;;;;;14.13;1.10;;;21.20;99.90;;;;;;1931158;74;21044;-74
2021/07/11 09:32:59;;;;;;;0.80;0.80;;;21.40;99.90;;;;;;1931097;74;21079;-74
2021/07/11 09:35:26;;;;;;;4.33;1.07;;;21.50;99.90;;;;;;1931087;74;21079;-75
2021/07/11 09:37:56;;;;;;;1.45;1.00;;;21.60;99.90;;;;;;1931049;74;21075;-74
2021/07/11 09:40:19;;;;;;;1.00;0.95;;;21.70;99.90;;;;;;1929481;74;21084;-72
2021/07/11 09:42:48;;;;;;;4.45;1.10;;;21.80;99.90;;;;;;1931001;74;21212;-80
2021/07/11 09:45:13;;;;;;;0.90;0.80;;;22.00;99.90;;;;;;1930872;74;21088;-76
2021/07/11 09:47:40;;;;;;;1.02;0.95;;;21.90;99.90;;;;;;1931134;74;21120;-74
2021/07/11 09:50:06;;;;;;;1.45;1.00;;;22.00;99.90;;;;;;1931009;74;21024;-74
2021/07/11 09:52:32;;;;;;;3.75;1.10;;;22.10;99.90;;;;;;1931100;74;21079;-75
2021/07/11 09:54:58;;;;;;;0.95;0.75;;;22.30;99.90;;;;;;1931006;74;21123;-76
2021/07/11 09:57:25;;;;;;;1.65;0.95;;;22.30;99.90;;;;;;1931010;74;21572;-78
2021/07/11 09:59:51;;;;;;;0.90;0.90;;;22.30;99.90;;;;;;1931056;74;21528;-77
2021/07/11 10:02:17;;;;;;;1.02;0.95;;;22.20;99.90;;;;;;1931123;74;21476;-75
2021/07/11 10:04:43;;;;;;;1.75;1.10;;;22.10;99.90;;;;;;1931136;74;21483;-75
2021/07/11 10:07:09;;;;;;;1.85;0.80;;;22.00;99.90;;;;;;1931254;74;21693;-73
2021/07/11 10:09:35;;;;;;;3.55;1.07;;;22.10;99.90;;;;;;1931069;74;21149;-74
2021/07/11 10:12:01;;;;;;;2.08;0.80;;;22.10;99.90;;;;;;1931101;74;21108;-74
2021/07/11 10:14:27;;;;;;;1.47;1.00;;;22.30;99.90;;;;;;1931063;74;21149;-74
2021/07/11 10:16:54;;;;;;;0.98;0.82;;;22.30;99.90;;;;;;1931112;74;21079;-74
2021/07/11 10:19:20;;;;;;;1.15;1.05;;;22.60;99.90;;;;;;1931116;74;21078;-76
2021/07/11 10:21:47;;;;;;;0.93;0.80;;;22.50;99.90;;;;;;1931243;74;21112;-71
2021/07/11 10:24:13;;;;;;;2.47;0.80;;;22.60;99.90;;;;;;1931071;74;21472;-69
2021/07/11 10:26:40;;;;;;;2.40;0.90;;;22.70;99.90;;;;;;1931144;74;21598;-68
2021/07/11 10:29:06;;;;;;;0.80;0.80;;;23.20;99.90;;;;;;1930977;74;21523;-70
2021/07/11 10:31:32;;;;;;;5.20;0.93;;;22.80;99.90;;;;;;1931191;74;21581;-70
2021/07/11 10:33:58;;;;;;;1.35;1.00;;;22.60;99.90;;;;;;1931128;74;21469;-70
2021/07/11 10:36:25;;;;;;;6.33;1.07;;;22.70;99.90;;;;;;1931113;74;21547;-70
2021/07/11 10:38:52;;;;;;;0.95;0.93;;;22.30;99.90;;;;;;1931118;74;21104;-67
2021/07/11 10:41:18;;;;;;;1.52;0.88;;;22.20;99.90;;;;;;1931075;74;21569;-70
2021/07/11 10:43:44;;;;;;;1.12;0.70;;;21.70;99.90;;;;;;1931205;74;21141;-70
2021/07/11 10:46:11;;;;;;;2.25;2.05;;;21.50;99.90;;;;;;1931081;74;21071;-72
2021/07/11 10:48:37;;;;;;;1.55;1.00;;;21.60;99.90;;;;;;1931144;74;21080;-71
2021/07/11 10:51:03;;;;;;;3.50;0.95;;;22.00;99.90;;;;;;1931210;74;21109;-71
2021/07/11 10:53:29;;;;;;;1.00;1.00;;;22.10;99.90;;;;;;1930907;74;21138;-71
2021/07/11 10:55:56;;;;;;;1.35;1.02;;;22.20;99.90;;;;;;1931045;74;21108;-70
2021/07/11 10:58:22;;;;;;;0.85;0.85;;;22.10;99.90;;;;;;1930944;74;21079;-71
2021/07/11 11:00:48;;;;;;;0.98;0.98;;;22.10;99.90;;;;;;1931112;74;21178;-71
2021/07/11 11:03:14;;;;;;;1.70;0.90;;;22.30;99.90;;;;;;1931073;74;21083;-70
2021/07/11 11:05:40;;;;;;;0.98;0.90;;;22.30;99.90;;;;;;1931172;74;21251;-71
2021/07/11 11:08:06;;;;;;;1.45;1.20;;;22.10;99.90;;;;;;1930989;74;21088;-68
2021/07/11 11:10:32;;;;;;;1.40;1.12;;;21.70;99.90;;;;;;1931097;74;21079;-70
2021/07/11 11:12:59;;;;;;;1.77;1.10;;;21.80;99.90;;;;;;1930986;74;21103;-70
2021/07/11 11:15:25;;;;;;;1.35;0.90;;;21.90;99.90;;;;;;1930981;74;21100;-72
2021/07/11 11:17:51;;;;;;;1.52;1.12;;;21.70;99.90;;;;;;1931084;74;21045;-71
2021/07/11 11:20:17;;;;;;;1.35;1.00;;;21.70;99.90;;;;;;1931171;74;21146;-71
2021/07/11 11:22:43;;;;;;;0.80;0.80;;;21.50;99.90;;;;;;1931105;74;21120;-71
2021/07/11 11:25:09;;;;;;;2.05;1.20;;;21.30;99.90;;;;;;1931063;74;21131;-74
2021/07/11 11:27:35;;;;;;;1.32;1.22;;;21.10;99.90;;;;;;1931033;74;21130;-72
2021/07/11 11:30:01;;;;;;;5.28;1.10;;;20.60;99.90;;;;;;1930981;74;21173;-71
2021/07/11 11:32:28;;;;;;;2.60;1.40;;;20.20;99.90;;;;;;1931043;74;21543;-70
2021/07/11 11:34:54;;;;;;;2.98;1.35;;;20.00;99.90;;;;;;1931109;74;21112;-71
2021/07/11 11:37:20;;;;;;;3.87;1.22;;;20.00;99.90;;;;;;1931073;74;21041;-70
2021/07/11 11:39:46;;;;;;;5.65;1.45;;;19.90;99.90;;;;;;1931106;74;21524;-69
2021/07/11 11:42:12;;;;;;;1.92;1.07;;;20.00;99.90;;;;;;1930885;74;21492;-69
2021/07/11 11:44:38;;;;;;;2.65;1.37;;;20.00;99.90;;;;;;1930984;74;21557;-70
2021/07/11 11:47:04;;;;;;;1.92;1.27;;;20.00;99.90;;;;;;1931171;74;21520;-70
2021/07/11 11:49:30;;;;;;;1.20;1.10;;;20.10;99.90;;;;;;1923321;74;21641;-70
2021/07/11 11:51:57;;;;;;;1.25;1.12;;;20.20;99.90;;;;;;1912146;75;21080;-70
2021/07/11 11:54:23;;;;;;;1.67;1.37;;;20.40;99.90;;;;;;1928450;74;21154;-71
2021/07/11 11:56:49;;;;;;;2.42;1.47;;;20.60;99.90;;;;;;1929265;74;21124;-69
2021/07/11 11:59:15;;;;;;;1.10;1.00;;;21.00;99.90;;;;;;1911843;75;21085;-70
2021/07/11 12:01:41;;;;;;;1.82;1.15;;;21.20;99.90;;;;;;1918749;74;21071;-70
2021/07/11 12:04:08;;;;;;;2.02;1.12;;;21.30;99.90;;;;;;1918606;74;21496;-70
2021/07/11 12:06:34;;;;;;;1.30;0.98;;;21.00;99.90;;;;;;1911848;75;21158;-70
2021/07/11 12:09:00;;;;;;;1.30;1.20;;;20.90;99.90;;;;;;1911812;75;21185;-70
2021/07/11 12:11:26;;;;;;;1.20;1.10;;;21.20;99.90;;;;;;1911819;75;21034;-71
2021/07/11 12:13:52;;;;;;;1.15;1.07;;;21.00;99.90;;;;;;1911852;75;21068;-72
2021/07/11 12:16:19;;;;;;;1.40;1.30;;;21.20;99.90;;;;;;1911856;75;21064;-70
2021/07/11 12:18:45;;;;;;;1.67;1.17;;;21.70;99.90;;;;;;1911907;75;21087;-69
2021/07/11 12:21:11;;;;;;;1.25;1.15;;;22.20;99.90;;;;;;1911900;75;21084;-69
2021/07/11 12:23:37;;;;;;;0.70;0.70;;;22.40;99.90;;;;;;1911938;75;21434;-68
2021/07/11 12:26:05;;;;;;;2.58;1.10;;;22.30;99.90;;;;;;1911775;75;21558;-70
2021/07/11 12:28:32;;;;;;;6.75;1.10;;;22.70;99.90;;;;;;1911596;75;21109;-69
2021/07/11 12:30:59;;;;;;;2.10;1.20;;;23.00;99.90;;;;;;1911892;75;21077;-69
2021/07/11 12:33:25;;;;;;;1.22;0.90;;;23.40;99.90;;;;;;1911889;75;21139;-69
2021/07/11 12:35:52;;;;;;;1.35;0.98;;;23.90;99.90;;;;;;1911882;75;21073;-69
2021/07/11 12:38:18;;;;;;;0.95;0.93;;;24.40;99.90;;;;;;1911961;75;21496;-69
2021/07/11 12:40:45;;;;;;;1.20;0.90;;;25.20;99.90;;;;;;1911769;75;21570;-69
2021/07/11 12:43:18;;;;;;;2.27;1.10;;;25.10;99.90;;;;;;1911947;75;21481;-69